Time;durP1;ratioP1;P1;durP2;ratioP2;P2;SDS_P1;SDS_P2;PMS_P1;PMS_P2;Temp;Humidity;BMP_temperature;BMP_pressure;BME280_temperature;BME280_humidity;BME280_pressure;Samples;Min_cycle;Max_cycle;Signal;HPM_P1;HPM_P2
2022/02/25 00:00:57;;;;;;;3.60;3.40;;;;;;;;;;2068002;28;20035;-67
2022/02/25 00:02:16;;;;;;;4.32;4.00;;;;;;;;;;2068268;28;20030;-66
2022/02/25 00:03:36;;;;;;;4.15;3.85;;;;;;;;;;2067837;28;20536;-67
2022/02/25 00:04:54;;;;;;;4.50;4.10;;;;;;;;;;2067622;28;20042;-67
2022/02/25 00:06:13;;;;;;;4.57;4.25;;;;;;;;;;2067441;28;20026;-67
2022/02/25 00:07:32;;;;;;;4.13;3.85;;;;;;;;;;2067536;28;20041;-67
2022/02/25 00:08:51;;;;;;;4.90;4.50;;;;;;;;;;2068022;28;20091;-67
2022/02/25 00:10:10;;;;;;;4.40;4.10;;;;;;;;;;2067155;28;20038;-66
2022/02/25 00:11:29;;;;;;;4.30;4.00;;;;;;;;;;2068692;28;20026;-67
2022/02/25 00:12:48;;;;;;;4.55;4.00;;;;;;;;;;2067618;28;20096;-66
2022/02/25 00:14:07;;;;;;;6.28;5.68;;;;;;;;;;2068408;28;20468;-66
2022/02/25 00:15:26;;;;;;;6.45;5.95;;;;;;;;;;2068269;28;20054;-67
2022/02/25 00:16:45;;;;;;;6.18;5.43;;;;;;;;;;2067685;28;20492;-65
2022/02/25 00:18:04;;;;;;;6.68;5.93;;;;;;;;;;2067968;28;20030;-65
2022/02/25 00:19:23;;;;;;;6.13;5.63;;;;;;;;;;2068240;28;20026;-65
2022/02/25 00:20:42;;;;;;;6.55;5.95;;;;;;;;;;2066836;28;20027;-65
2022/02/25 00:22:01;;;;;;;7.10;6.05;;;;;;;;;;2067999;28;20484;-65
2022/02/25 00:23:20;;;;;;;7.07;6.47;;;;;;;;;;2067086;28;20038;-66
2022/02/25 00:24:39;;;;;;;7.35;6.50;;;;;;;;;;2067937;28;20393;-66
2022/02/25 00:25:58;;;;;;;7.15;6.40;;;;;;;;;;2067505;28;20035;-65
2022/02/25 00:27:17;;;;;;;8.05;6.90;;;;;;;;;;2067165;28;20512;-65
2022/02/25 00:28:36;;;;;;;6.90;6.30;;;;;;;;;;2068526;28;20038;-66
2022/02/25 00:29:55;;;;;;;6.88;6.25;;;;;;;;;;2067629;28;20034;-65
2022/02/25 00:31:14;;;;;;;6.60;5.95;;;;;;;;;;2067546;28;20038;-65
2022/02/25 00:32:33;;;;;;;6.72;6.03;;;;;;;;;;2067653;28;20038;-66
2022/02/25 00:33:52;;;;;;;6.75;6.15;;;;;;;;;;2068635;28;20034;-65
2022/02/25 00:35:11;;;;;;;8.30;6.53;;;;;;;;;;2067800;28;20034;-65
2022/02/25 00:36:29;;;;;;;9.85;7.10;;;;;;;;;;2068205;28;20027;-65
2022/02/25 00:37:49;;;;;;;8.95;7.05;;;;;;;;;;2067518;28;20021;-65
2022/02/25 00:39:08;;;;;;;6.78;6.20;;;;;;;;;;2066876;28;20025;-65
2022/02/25 00:40:26;;;;;;;8.00;6.65;;;;;;;;;;2064722;28;20026;-65
2022/02/25 00:41:45;;;;;;;9.52;7.93;;;;;;;;;;2067648;28;20042;-65
2022/02/25 00:43:04;;;;;;;7.72;6.93;;;;;;;;;;2065669;28;20075;-65
2022/02/25 00:44:23;;;;;;;6.72;6.13;;;;;;;;;;2067313;28;20039;-65
2022/02/25 00:45:42;;;;;;;6.55;5.95;;;;;;;;;;2067039;28;20037;-65
2022/02/25 00:47:01;;;;;;;6.53;5.93;;;;;;;;;;2066763;28;20038;-65
2022/02/25 00:48:20;;;;;;;6.43;5.78;;;;;;;;;;2066922;28;20046;-65
2022/02/25 00:49:39;;;;;;;7.40;6.28;;;;;;;;;;2067052;28;20152;-64
2022/02/25 00:50:58;;;;;;;6.03;5.43;;;;;;;;;;2067860;28;20027;-66
2022/02/25 00:52:17;;;;;;;7.88;5.97;;;;;;;;;;2066316;28;20038;-65
2022/02/25 00:53:35;;;;;;;6.30;5.70;;;;;;;;;;2067742;28;20023;-66
2022/02/25 00:54:54;;;;;;;5.63;5.13;;;;;;;;;;2071510;28;20077;-65
2022/02/25 00:56:13;;;;;;;8.30;6.78;;;;;;;;;;2067857;28;20030;-66
2022/02/25 00:57:32;;;;;;;6.13;5.53;;;;;;;;;;2066805;28;20026;-66
2022/02/25 00:58:53;;;;;;;6.47;5.85;;;;;;;;;;2068169;28;20034;-66
2022/02/25 01:00:16;;;;;;;7.57;6.80;;;;;;;;;;2067104;28;20074;-66
2022/02/25 01:01:35;;;;;;;7.32;5.68;;;;;;;;;;2067977;28;20035;-67
2022/02/25 01:02:54;;;;;;;6.50;5.90;;;;;;;;;;2066479;28;20031;-66
2022/02/25 01:04:13;;;;;;;6.15;5.28;;;;;;;;;;2068155;28;20106;-66
2022/02/25 01:05:33;;;;;;;5.90;5.35;;;;;;;;;;2067750;28;20038;-66
2022/02/25 01:06:51;;;;;;;5.93;5.18;;;;;;;;;;2066435;28;20030;-66
2022/02/25 01:08:11;;;;;;;4.25;3.85;;;;;;;;;;2067139;28;20075;-66
2022/02/25 01:09:29;;;;;;;5.88;4.43;;;;;;;;;;2067798;28;20066;-66
2022/02/25 01:10:48;;;;;;;4.88;4.38;;;;;;;;;;2066678;28;20023;-66
2022/02/25 01:12:07;;;;;;;5.53;4.88;;;;;;;;;;2066933;28;20026;-66
2022/02/25 01:13:26;;;;;;;5.10;4.10;;;;;;;;;;2067305;28;20546;-66
2022/02/25 01:14:45;;;;;;;4.53;4.13;;;;;;;;;;2067129;28;20034;-66
2022/02/25 01:16:04;;;;;;;7.90;5.28;;;;;;;;;;2066064;28;20026;-66
2022/02/25 01:17:23;;;;;;;7.00;4.50;;;;;;;;;;2066948;28;20027;-66
2022/02/25 01:18:42;;;;;;;8.35;5.38;;;;;;;;;;2067971;28;20030;-66
2022/02/25 01:20:02;;;;;;;6.57;5.18;;;;;;;;;;2067479;28;20389;-66
2022/02/25 01:21:21;;;;;;;6.03;5.10;;;;;;;;;;2065954;28;20026;-66
2022/02/25 01:22:40;;;;;;;7.03;5.30;;;;;;;;;;2066242;28;20496;-65
2022/02/25 01:23:59;;;;;;;6.03;4.70;;;;;;;;;;2068183;28;20034;-66
2022/02/25 01:25:19;;;;;;;6.25;5.00;;;;;;;;;;2068801;28;20043;-66
2022/02/25 01:26:38;;;;;;;6.10;4.93;;;;;;;;;;2066211;28;20421;-66
2022/02/25 01:27:57;;;;;;;5.32;4.60;;;;;;;;;;2066413;28;20461;-66
2022/02/25 01:29:16;;;;;;;5.25;4.35;;;;;;;;;;2068604;28;20033;-65
2022/02/25 01:30:35;;;;;;;5.38;4.75;;;;;;;;;;2067280;28;20026;-66
2022/02/25 01:31:54;;;;;;;4.85;4.30;;;;;;;;;;2066548;28;20569;-66
2022/02/25 01:33:16;;;;;;;4.22;3.70;;;;;;;;;;2066102;28;20109;-67
2022/02/25 01:34:35;;;;;;;4.15;3.10;;;;;;;;;;2068225;28;20026;-66
2022/02/25 01:35:54;;;;;;;7.45;3.67;;;;;;;;;;2063882;28;20026;-66
2022/02/25 01:37:13;;;;;;;5.07;4.28;;;;;;;;;;2067788;28;20408;-66
2022/02/25 01:38:32;;;;;;;6.90;4.40;;;;;;;;;;2068324;28;20033;-66
2022/02/25 01:39:51;;;;;;;4.05;3.65;;;;;;;;;;2067542;28;20466;-66
2022/02/25 01:41:10;;;;;;;3.90;3.30;;;;;;;;;;2066750;28;20022;-66
2022/02/25 01:42:29;;;;;;;5.93;3.85;;;;;;;;;;2066644;28;20050;-66
2022/02/25 01:44:08;;;;;;;4.97;3.45;;;;;;;;;;2108167;28;20032;-65
2022/02/25 01:45:29;;;;;;;4.85;3.92;;;;;;;;;;2068505;28;20071;-65
2022/02/25 01:46:47;;;;;;;3.88;3.25;;;;;;;;;;2067686;28;20030;-65
2022/02/25 01:48:06;;;;;;;5.25;3.25;;;;;;;;;;2067965;28;20039;-65
2022/02/25 01:49:25;;;;;;;4.20;3.38;;;;;;;;;;2067697;28;20034;-66
2022/02/25 01:50:44;;;;;;;6.38;3.08;;;;;;;;;;2066444;28;20030;-65
2022/02/25 01:52:04;;;;;;;4.22;3.08;;;;;;;;;;2064050;28;20460;-66
2022/02/25 01:53:23;;;;;;;4.00;3.20;;;;;;;;;;2067565;28;20981;-65
2022/02/25 01:54:43;;;;;;;4.35;3.45;;;;;;;;;;2066518;28;20038;-66
2022/02/25 01:56:02;;;;;;;4.75;3.60;;;;;;;;;;2066828;28;20022;-66
2022/02/25 01:57:21;;;;;;;5.25;3.30;;;;;;;;;;2065655;28;20050;-66
2022/02/25 01:58:39;;;;;;;4.57;4.00;;;;;;;;;;2067809;28;20030;-65
2022/02/25 01:59:58;;;;;;;6.03;3.20;;;;;;;;;;2064069;28;20065;-65
2022/02/25 02:01:17;;;;;;;3.90;3.30;;;;;;;;;;2066333;28;20058;-65
2022/02/25 02:02:36;;;;;;;6.50;3.80;;;;;;;;;;2064631;28;20030;-65
2022/02/25 02:03:55;;;;;;;4.95;3.63;;;;;;;;;;2064382;28;20054;-66
2022/02/25 02:05:14;;;;;;;5.10;3.20;;;;;;;;;;2064939;28;20030;-65
2022/02/25 02:06:33;;;;;;;5.10;3.72;;;;;;;;;;2067074;28;20038;-66
2022/02/25 02:07:52;;;;;;;3.80;3.40;;;;;;;;;;2067567;28;20038;-65
2022/02/25 02:09:11;;;;;;;6.03;3.40;;;;;;;;;;2066946;28;20038;-65
2022/02/25 02:10:29;;;;;;;4.55;3.30;;;;;;;;;;2066930;28;20030;-65
2022/02/25 02:11:50;;;;;;;4.43;3.42;;;;;;;;;;2065495;28;20026;-65
2022/02/25 02:13:11;;;;;;;3.58;3.25;;;;;;;;;;2066507;28;20019;-65
2022/02/25 02:14:29;;;;;;;4.47;2.92;;;;;;;;;;2067982;28;20341;-65
2022/02/25 02:15:48;;;;;;;4.18;3.78;;;;;;;;;;2067985;28;20101;-65
2022/02/25 02:17:08;;;;;;;3.53;2.67;;;;;;;;;;2065331;28;20034;-65
2022/02/25 02:18:27;;;;;;;19.90;3.72;;;;;;;;;;2067278;28;20381;-65
2022/02/25 02:19:45;;;;;;;5.65;3.80;;;;;;;;;;2067061;28;20489;-65
2022/02/25 02:21:05;;;;;;;3.80;3.40;;;;;;;;;;2067155;28;20543;-65
2022/02/25 02:22:24;;;;;;;5.82;3.22;;;;;;;;;;2065779;28;20034;-65
2022/02/25 02:23:43;;;;;;;3.90;3.60;;;;;;;;;;2066596;28;20153;-65
2022/02/25 02:25:03;;;;;;;5.20;3.50;;;;;;;;;;2068067;28;20034;-65
2022/02/25 02:26:22;;;;;;;3.38;3.08;;;;;;;;;;2067396;28;20121;-65
2022/02/25 02:29:19;;;;;;;3.67;3.20;;;;;;;;;;2066399;28;20030;-65
2022/02/25 02:30:38;;;;;;;4.03;3.50;;;;;;;;;;2066221;28;20026;-66
2022/02/25 02:31:58;;;;;;;3.63;3.10;;;;;;;;;;2066496;28;20380;-65
2022/02/25 02:33:16;;;;;;;3.65;3.35;;;;;;;;;;2067062;28;20025;-65
2022/02/25 02:34:36;;;;;;;4.88;4.07;;;;;;;;;;2067562;28;20022;-65
2022/02/25 02:35:55;;;;;;;3.67;3.22;;;;;;;;;;2066799;28;20022;-65
2022/02/25 02:37:14;;;;;;;3.50;3.20;;;;;;;;;;2065736;28;20019;-65
2022/02/25 02:38:34;;;;;;;4.30;3.88;;;;;;;;;;2067323;28;20042;-65
2022/02/25 02:39:53;;;;;;;4.90;3.22;;;;;;;;;;2066368;28;20495;-65
2022/02/25 02:41:12;;;;;;;3.15;2.95;;;;;;;;;;2066743;28;20030;-65
2022/02/25 02:42:31;;;;;;;4.95;2.92;;;;;;;;;;2065558;28;20411;-65
2022/02/25 02:43:50;;;;;;;6.07;3.05;;;;;;;;;;2066971;28;20530;-65
2022/02/25 02:45:09;;;;;;;5.20;3.10;;;;;;;;;;2067027;28;20481;-66
2022/02/25 02:46:28;;;;;;;4.47;2.72;;;;;;;;;;2067459;28;20053;-65
2022/02/25 02:47:47;;;;;;;4.70;2.53;;;;;;;;;;2066046;28;20070;-65
2022/02/25 02:49:06;;;;;;;3.72;2.63;;;;;;;;;;2066325;28;20030;-65
2022/02/25 02:50:25;;;;;;;3.00;2.63;;;;;;;;;;2067460;28;20030;-65
2022/02/25 02:51:44;;;;;;;3.72;2.80;;;;;;;;;;2068451;28;20042;-65
2022/02/25 02:53:03;;;;;;;2.80;2.53;;;;;;;;;;2068100;28;21091;-65
2022/02/25 02:54:22;;;;;;;4.88;2.20;;;;;;;;;;2068663;28;20101;-65
2022/02/25 02:55:42;;;;;;;2.78;2.45;;;;;;;;;;2064605;28;20428;-65
2022/02/25 02:57:01;;;;;;;3.00;2.53;;;;;;;;;;2067694;28;20022;-65
2022/02/25 02:58:20;;;;;;;5.85;2.38;;;;;;;;;;2068106;28;20281;-65
2022/02/25 02:59:39;;;;;;;5.00;2.75;;;;;;;;;;2067179;28;20031;-65
2022/02/25 03:00:58;;;;;;;4.60;3.05;;;;;;;;;;2068495;28;20488;-65
2022/02/25 03:02:17;;;;;;;4.70;2.95;;;;;;;;;;2068732;28;20031;-65
2022/02/25 03:03:36;;;;;;;3.13;2.20;;;;;;;;;;2068918;28;20038;-65
2022/02/25 03:04:54;;;;;;;2.97;1.88;;;;;;;;;;2068653;28;20101;-65
2022/02/25 03:06:13;;;;;;;5.43;1.63;;;;;;;;;;2067936;28;20037;-65
2022/02/25 03:07:33;;;;;;;2.30;1.67;;;;;;;;;;2068264;28;20050;-65
2022/02/25 03:08:52;;;;;;;2.65;1.27;;;;;;;;;;2068949;28;20079;-64
2022/02/25 03:10:12;;;;;;;3.22;1.80;;;;;;;;;;2066148;28;20030;-65
2022/02/25 03:11:31;;;;;;;2.05;1.67;;;;;;;;;;2064468;28;20070;-65
2022/02/25 03:12:51;;;;;;;2.72;1.40;;;;;;;;;;2066935;28;20444;-65
2022/02/25 03:14:09;;;;;;;1.92;1.35;;;;;;;;;;2069029;28;20035;-65
2022/02/25 03:15:29;;;;;;;4.13;1.58;;;;;;;;;;2068004;28;20050;-65
2022/02/25 03:16:47;;;;;;;2.58;1.60;;;;;;;;;;2068566;28;20064;-65
2022/02/25 03:18:06;;;;;;;1.90;1.50;;;;;;;;;;2067333;28;20079;-65
2022/02/25 03:19:25;;;;;;;1.92;1.63;;;;;;;;;;2064601;28;20106;-65
2022/02/25 03:20:44;;;;;;;2.17;1.67;;;;;;;;;;2068758;28;20126;-65
2022/02/25 03:22:03;;;;;;;2.67;1.75;;;;;;;;;;2068127;28;20415;-65
2022/02/25 03:23:22;;;;;;;1.73;1.58;;;;;;;;;;2067234;28;20052;-65
2022/02/25 03:24:40;;;;;;;1.55;1.45;;;;;;;;;;2068769;28;20503;-65
2022/02/25 03:25:59;;;;;;;2.22;1.60;;;;;;;;;;2067400;28;20038;-65
2022/02/25 03:27:18;;;;;;;3.33;1.50;;;;;;;;;;2068194;28;20071;-65
2022/02/25 03:28:37;;;;;;;1.77;1.15;;;;;;;;;;2066899;28;20038;-65
2022/02/25 03:29:56;;;;;;;2.42;1.70;;;;;;;;;;2069148;28;20026;-66
2022/02/25 03:31:15;;;;;;;2.67;1.52;;;;;;;;;;2067731;28;20038;-65
2022/02/25 03:32:34;;;;;;;1.20;1.10;;;;;;;;;;2067345;28;20050;-66
2022/02/25 03:33:53;;;;;;;1.50;1.40;;;;;;;;;;2067655;28;20035;-65
2022/02/25 03:35:13;;;;;;;4.22;1.27;;;;;;;;;;2068625;28;20707;-66
2022/02/25 03:36:32;;;;;;;1.52;1.42;;;;;;;;;;2067953;28;20056;-66
2022/02/25 03:37:51;;;;;;;2.20;1.08;;;;;;;;;;2068575;28;20069;-66
2022/02/25 03:39:10;;;;;;;2.55;1.23;;;;;;;;;;2067899;28;20023;-65
2022/02/25 03:40:28;;;;;;;1.30;1.17;;;;;;;;;;2067905;28;20463;-66
2022/02/25 03:41:47;;;;;;;2.90;1.85;;;;;;;;;;2067645;28;20039;-66
2022/02/25 03:43:06;;;;;;;1.70;1.50;;;;;;;;;;2067317;28;20027;-66
2022/02/25 03:44:25;;;;;;;3.40;1.48;;;;;;;;;;2067911;28;20042;-66
2022/02/25 03:45:44;;;;;;;1.70;1.50;;;;;;;;;;2067134;28;20062;-66
2022/02/25 03:47:04;;;;;;;1.60;1.50;;;;;;;;;;2067659;28;20407;-66
2022/02/25 03:48:23;;;;;;;1.75;1.42;;;;;;;;;;2068008;28;20030;-66
2022/02/25 03:49:42;;;;;;;1.50;1.40;;;;;;;;;;2067686;28;20077;-66
2022/02/25 03:51:00;;;;;;;1.98;1.48;;;;;;;;;;2067572;28;20034;-66
2022/02/25 03:52:19;;;;;;;1.60;1.50;;;;;;;;;;2068331;28;20094;-66
2022/02/25 03:53:38;;;;;;;1.70;1.60;;;;;;;;;;2068041;28;20038;-66
2022/02/25 03:54:57;;;;;;;1.92;1.52;;;;;;;;;;2068799;28;20033;-66
2022/02/25 03:56:16;;;;;;;2.17;1.75;;;;;;;;;;2066804;28;20026;-66
2022/02/25 03:57:35;;;;;;;2.40;2.20;;;;;;;;;;2067692;28;20101;-66
2022/02/25 03:58:54;;;;;;;2.22;1.90;;;;;;;;;;2067045;28;20030;-66
2022/02/25 04:00:13;;;;;;;3.97;1.60;;;;;;;;;;2068143;28;20030;-66
2022/02/25 04:01:33;;;;;;;1.85;1.75;;;;;;;;;;2065693;28;20022;-66
2022/02/25 04:02:52;;;;;;;2.10;1.90;;;;;;;;;;2068203;28;20477;-66
2022/02/25 04:04:11;;;;;;;3.60;1.75;;;;;;;;;;2066933;28;20034;-66
2022/02/25 04:05:30;;;;;;;2.00;1.80;;;;;;;;;;2065102;28;20039;-66
2022/02/25 04:06:49;;;;;;;3.53;2.00;;;;;;;;;;2066769;28;20034;-66
2022/02/25 04:08:08;;;;;;;2.30;2.10;;;;;;;;;;2068157;28;20026;-66
2022/02/25 04:09:27;;;;;;;2.55;1.90;;;;;;;;;;2067844;28;20117;-66
2022/02/25 04:10:46;;;;;;;2.60;2.40;;;;;;;;;;2068734;28;20038;-66
2022/02/25 04:12:05;;;;;;;3.65;2.17;;;;;;;;;;2067833;28;20034;-66
2022/02/25 04:13:24;;;;;;;2.42;2.15;;;;;;;;;;2067518;28;20101;-65
2022/02/25 04:14:43;;;;;;;3.20;2.00;;;;;;;;;;2066875;28;20583;-66
2022/02/25 04:16:02;;;;;;;3.08;2.40;;;;;;;;;;2067737;28;20065;-66
2022/02/25 04:17:20;;;;;;;2.08;1.85;;;;;;;;;;2067570;28;20038;-65
2022/02/25 04:18:39;;;;;;;2.97;2.10;;;;;;;;;;2068404;28;20492;-66
2022/02/25 04:19:58;;;;;;;3.33;1.90;;;;;;;;;;2068226;28;20046;-66
2022/02/25 04:21:17;;;;;;;2.85;2.38;;;;;;;;;;2067659;28;20038;-66
2022/02/25 04:22:36;;;;;;;5.60;2.20;;;;;;;;;;2066399;28;20042;-66
2022/02/25 04:23:55;;;;;;;2.67;2.47;;;;;;;;;;2066925;28;20034;-64
2022/02/25 04:25:14;;;;;;;2.45;2.15;;;;;;;;;;2067059;28;20505;-65
2022/02/25 04:26:33;;;;;;;2.53;2.20;;;;;;;;;;2067842;28;20046;-65
2022/02/25 04:27:52;;;;;;;2.30;2.00;;;;;;;;;;2068258;28;20030;-65
2022/02/25 04:29:12;;;;;;;3.78;2.45;;;;;;;;;;2066908;28;20133;-65
2022/02/25 04:30:32;;;;;;;5.90;2.60;;;;;;;;;;2067896;28;20033;-65
2022/02/25 04:31:51;;;;;;;4.47;2.58;;;;;;;;;;2067492;28;20392;-65
2022/02/25 04:33:10;;;;;;;4.75;2.83;;;;;;;;;;2067857;28;20114;-65
2022/02/25 04:34:28;;;;;;;4.75;3.20;;;;;;;;;;2067218;28;20042;-65
2022/02/25 04:35:47;;;;;;;3.10;2.90;;;;;;;;;;2068745;28;20057;-65
2022/02/25 04:37:06;;;;;;;4.35;3.08;;;;;;;;;;2067682;28;20034;-66
2022/02/25 04:38:25;;;;;;;5.90;3.67;;;;;;;;;;2067283;28;20034;-65
2022/02/25 04:39:44;;;;;;;4.88;3.45;;;;;;;;;;2066935;28;20026;-65
2022/02/25 04:41:03;;;;;;;7.20;3.85;;;;;;;;;;2109416;28;20031;-65
2022/02/25 04:42:22;;;;;;;6.47;4.20;;;;;;;;;;2085053;28;20396;-65
2022/02/25 04:43:41;;;;;;;6.40;4.70;;;;;;;;;;2068535;28;20441;-65
2022/02/25 04:45:00;;;;;;;9.02;4.20;;;;;;;;;;2067434;28;20030;-65
2022/02/25 04:46:20;;;;;;;6.35;3.75;;;;;;;;;;2067995;28;20022;-65
2022/02/25 04:47:40;;;;;;;6.60;4.03;;;;;;;;;;2067499;28;20031;-65
2022/02/25 04:48:58;;;;;;;7.20;4.03;;;;;;;;;;2067378;28;20070;-65
2022/02/25 04:50:17;;;;;;;13.30;3.75;;;;;;;;;;2067618;28;20038;-65
2022/02/25 04:51:36;;;;;;;9.25;4.50;;;;;;;;;;2067624;28;20034;-65
2022/02/25 04:52:55;;;;;;;10.02;4.70;;;;;;;;;;2066496;28;20030;-65
2022/02/25 04:54:14;;;;;;;10.32;4.90;;;;;;;;;;2067758;28;20030;-65
2022/02/25 04:55:33;;;;;;;9.68;4.72;;;;;;;;;;2067722;28;20031;-65
2022/02/25 04:56:52;;;;;;;16.25;5.65;;;;;;;;;;2067731;28;20022;-65
2022/02/25 04:58:11;;;;;;;10.30;5.32;;;;;;;;;;2067930;28;20030;-65
2022/02/25 04:59:30;;;;;;;11.48;4.70;;;;;;;;;;2066833;28;20031;-64
2022/02/25 05:00:49;;;;;;;15.43;4.65;;;;;;;;;;2068128;28;20073;-64
2022/02/25 05:02:08;;;;;;;14.32;5.35;;;;;;;;;;2068307;28;20026;-64
2022/02/25 05:03:27;;;;;;;8.50;4.72;;;;;;;;;;2067284;28;20152;-65
2022/02/25 05:04:46;;;;;;;10.80;4.53;;;;;;;;;;2070382;28;20030;-65
2022/02/25 05:06:05;;;;;;;14.05;4.93;;;;;;;;;;2069081;28;20108;-66
2022/02/25 05:07:25;;;;;;;12.75;4.60;;;;;;;;;;2063306;28;20035;-65
2022/02/25 05:08:44;;;;;;;11.25;5.35;;;;;;;;;;2065496;28;20026;-65
2022/02/25 05:10:04;;;;;;;11.07;4.80;;;;;;;;;;2065605;28;20125;-65
2022/02/25 05:11:23;;;;;;;17.42;4.60;;;;;;;;;;2067309;28;20026;-63
2022/02/25 05:12:41;;;;;;;13.32;5.47;;;;;;;;;;2067023;28;20046;-64
2022/02/25 05:14:02;;;;;;;13.98;4.88;;;;;;;;;;2066452;28;20022;-65
2022/02/25 05:20:15;;;;;;;17.00;6.45;;;;;;;;;;2066617;28;20034;-66
2022/02/25 05:21:35;;;;;;;9.23;5.10;;;;;;;;;;2065925;28;20503;-64
2022/02/25 05:22:55;;;;;;;17.77;5.85;;;;;;;;;;2066747;28;20026;-65
2022/02/25 05:24:14;;;;;;;12.55;6.05;;;;;;;;;;2068205;28;20035;-64
2022/02/25 05:25:33;;;;;;;17.67;6.38;;;;;;;;;;2065545;28;20516;-64
2022/02/25 05:26:51;;;;;;;19.80;6.07;;;;;;;;;;2061382;28;20046;-65
2022/02/25 05:28:11;;;;;;;18.77;5.47;;;;;;;;;;2065955;28;20258;-66
2022/02/25 05:29:30;;;;;;;12.02;6.20;;;;;;;;;;2066935;28;20404;-65
2022/02/25 05:30:49;;;;;;;19.15;5.97;;;;;;;;;;2066296;28;20042;-66
2022/02/25 05:32:08;;;;;;;10.15;5.30;;;;;;;;;;2066467;28;20110;-68
2022/02/25 05:33:27;;;;;;;11.65;4.45;;;;;;;;;;2067064;28;20038;-66
2022/02/25 05:34:46;;;;;;;14.90;5.85;;;;;;;;;;2067965;28;20045;-65
2022/02/25 05:36:05;;;;;;;12.10;6.38;;;;;;;;;;2067775;28;20025;-66
2022/02/25 05:37:23;;;;;;;20.27;5.90;;;;;;;;;;2066860;28;20066;-65
2022/02/25 05:38:43;;;;;;;12.20;5.07;;;;;;;;;;2065957;28;20031;-66
2022/02/25 05:40:02;;;;;;;15.10;5.30;;;;;;;;;;2066528;28;20058;-66
2022/02/25 05:41:21;;;;;;;15.23;5.47;;;;;;;;;;2067479;28;20030;-66
2022/02/25 05:42:41;;;;;;;20.02;5.82;;;;;;;;;;2066480;28;20149;-67
2022/02/25 05:44:00;;;;;;;19.00;6.10;;;;;;;;;;2067552;28;20022;-66
2022/02/25 05:45:19;;;;;;;18.40;5.65;;;;;;;;;;2065742;28;20034;-66
2022/02/25 05:46:38;;;;;;;19.13;6.60;;;;;;;;;;2066764;28;20026;-66
2022/02/25 05:47:57;;;;;;;15.38;6.03;;;;;;;;;;2067029;28;20038;-66
2022/02/25 05:49:16;;;;;;;15.85;5.75;;;;;;;;;;2066384;28;20034;-66
2022/02/25 05:50:36;;;;;;;17.23;6.05;;;;;;;;;;2066753;28;20026;-66
2022/02/25 05:51:55;;;;;;;9.60;5.18;;;;;;;;;;2065959;28;20509;-66
2022/02/25 05:53:14;;;;;;;13.57;4.18;;;;;;;;;;2065666;28;20042;-66
2022/02/25 05:54:33;;;;;;;10.70;4.93;;;;;;;;;;2065721;28;20468;-66
2022/02/25 05:55:52;;;;;;;16.55;5.20;;;;;;;;;;2066188;28;20125;-66
2022/02/25 05:57:12;;;;;;;12.15;4.13;;;;;;;;;;2067011;28;20026;-66
2022/02/25 05:58:31;;;;;;;13.65;5.95;;;;;;;;;;2061645;28;20031;-67
2022/02/25 05:59:50;;;;;;;13.65;4.88;;;;;;;;;;2065578;28;20610;-66
2022/02/25 06:01:09;;;;;;;9.10;3.30;;;;;;;;;;2066402;28;20026;-66
2022/02/25 06:02:28;;;;;;;9.50;4.15;;;;;;;;;;2066157;28;20469;-66
2022/02/25 06:03:46;;;;;;;18.17;5.25;;;;;;;;;;2067649;28;20561;-66
2022/02/25 06:05:06;;;;;;;13.93;5.60;;;;;;;;;;2066289;28;20433;-65
2022/02/25 06:06:25;;;;;;;14.88;5.10;;;;;;;;;;2066133;28;20025;-67
2022/02/25 06:07:44;;;;;;;15.93;4.90;;;;;;;;;;2066659;28;20069;-65
2022/02/25 06:09:03;;;;;;;9.73;3.97;;;;;;;;;;2065832;28;20443;-68
2022/02/25 06:10:21;;;;;;;15.02;4.85;;;;;;;;;;2067284;28;20427;-66
2022/02/25 06:11:40;;;;;;;16.58;4.68;;;;;;;;;;2066297;28;20034;-66
2022/02/25 06:13:00;;;;;;;12.85;3.60;;;;;;;;;;2066574;28;20026;-67
2022/02/25 06:14:19;;;;;;;18.33;5.20;;;;;;;;;;2066502;28;20109;-68
2022/02/25 06:15:38;;;;;;;16.90;5.00;;;;;;;;;;2067421;28;20034;-68
2022/02/25 06:16:57;;;;;;;10.05;3.35;;;;;;;;;;2067640;28;20030;-67
2022/02/25 06:18:17;;;;;;;9.18;4.07;;;;;;;;;;2067094;28;20026;-68
2022/02/25 06:19:35;;;;;;;16.42;4.95;;;;;;;;;;2067347;28;20108;-68
2022/02/25 06:20:55;;;;;;;15.13;4.68;;;;;;;;;;2064553;28;20023;-66
2022/02/25 06:22:13;;;;;;;16.70;4.78;;;;;;;;;;2066821;28;20037;-66
2022/02/25 06:23:32;;;;;;;13.38;4.88;;;;;;;;;;2067321;28;20030;-66
2022/02/25 06:24:51;;;;;;;12.10;3.65;;;;;;;;;;2065860;28;20034;-66
2022/02/25 06:26:10;;;;;;;11.02;3.60;;;;;;;;;;2070497;28;20033;-67
2022/02/25 06:27:28;;;;;;;11.75;3.50;;;;;;;;;;2071148;28;20042;-66
2022/02/25 06:28:47;;;;;;;15.70;3.78;;;;;;;;;;2066166;28;20035;-66
2022/02/25 06:30:07;;;;;;;11.23;3.83;;;;;;;;;;2066406;28;20543;-66
2022/02/25 06:31:26;;;;;;;11.75;4.25;;;;;;;;;;2065336;28;20034;-66
2022/02/25 06:32:45;;;;;;;9.48;3.42;;;;;;;;;;2070249;28;20050;-66
2022/02/25 06:34:04;;;;;;;21.27;3.88;;;;;;;;;;2067389;28;20068;-66
2022/02/25 06:35:27;;;;;;;3.75;1.08;;;;;;;;;;2067383;28;20026;-66
2022/02/25 06:36:46;;;;;;;15.77;3.20;;;;;;;;;;2068734;28;20034;-66
2022/02/25 06:38:05;;;;;;;7.95;1.98;;;;;;;;;;2067695;28;20030;-66
2022/02/25 06:39:24;;;;;;;11.65;3.50;;;;;;;;;;2066834;28;20043;-66
2022/02/25 06:40:43;;;;;;;7.70;2.72;;;;;;;;;;2067054;28;20034;-66
2022/02/25 06:42:02;;;;;;;11.10;4.00;;;;;;;;;;2066296;28;20026;-66
2022/02/25 06:43:21;;;;;;;10.38;2.58;;;;;;;;;;2066842;28;20034;-66
2022/02/25 06:44:39;;;;;;;8.10;2.97;;;;;;;;;;2066119;28;20034;-67
2022/02/25 06:45:58;;;;;;;8.40;2.35;;;;;;;;;;2067688;28;20030;-68
2022/02/25 06:47:20;;;;;;;15.82;3.95;;;;;;;;;;2067589;28;20030;-68
2022/02/25 06:48:39;;;;;;;10.35;3.40;;;;;;;;;;2065936;28;20026;-68
2022/02/25 06:49:58;;;;;;;16.10;3.22;;;;;;;;;;2067352;28;20022;-68
2022/02/25 06:51:17;;;;;;;10.45;3.00;;;;;;;;;;2070962;28;20034;-67
2022/02/25 06:52:37;;;;;;;11.43;3.65;;;;;;;;;;2066895;28;20128;-68
2022/02/25 06:53:56;;;;;;;7.70;3.10;;;;;;;;;;2066369;28;20379;-68
2022/02/25 06:55:16;;;;;;;9.32;3.17;;;;;;;;;;2066527;28;20113;-67
2022/02/25 06:56:35;;;;;;;14.13;3.35;;;;;;;;;;2068271;28;20030;-66
2022/02/25 06:57:54;;;;;;;14.43;3.20;;;;;;;;;;2066665;28;20038;-67
2022/02/25 06:59:13;;;;;;;13.27;2.70;;;;;;;;;;2066467;28;20027;-66
2022/02/25 07:00:33;;;;;;;10.45;3.30;;;;;;;;;;2065778;28;20030;-66
2022/02/25 07:01:52;;;;;;;16.27;3.63;;;;;;;;;;2065113;28;20043;-66
2022/02/25 07:03:10;;;;;;;18.92;3.15;;;;;;;;;;2066108;28;20038;-67
2022/02/25 07:04:29;;;;;;;7.63;1.83;;;;;;;;;;2067142;28;20496;-66
2022/02/25 07:05:48;;;;;;;16.27;2.55;;;;;;;;;;2067110;28;20030;-68
2022/02/25 07:07:07;;;;;;;11.80;3.47;;;;;;;;;;2065697;28;20026;-67
2022/02/25 07:08:26;;;;;;;11.43;3.38;;;;;;;;;;2064190;28;20053;-68
2022/02/25 07:09:45;;;;;;;14.57;3.47;;;;;;;;;;2065973;28;20018;-66
2022/02/25 07:11:04;;;;;;;16.48;3.28;;;;;;;;;;2059644;28;20425;-66
2022/02/25 07:12:23;;;;;;;12.88;3.40;;;;;;;;;;2065391;28;20030;-66
2022/02/25 07:13:42;;;;;;;13.30;3.00;;;;;;;;;;2065876;28;20030;-69
2022/02/25 07:15:04;;;;;;;8.73;2.85;;;;;;;;;;2063975;28;20109;-66
2022/02/25 07:16:22;;;;;;;16.95;2.60;;;;;;;;;;2066493;28;20056;-68
2022/02/25 07:17:42;;;;;;;11.70;2.53;;;;;;;;;;2065611;28;20038;-69
2022/02/25 07:19:00;;;;;;;8.45;2.30;;;;;;;;;;2066955;28;20034;-68
2022/02/25 07:20:19;;;;;;;12.57;2.80;;;;;;;;;;2066335;28;20061;-68
2022/02/25 07:21:38;;;;;;;11.50;2.55;;;;;;;;;;2065883;28;20039;-68
2022/02/25 07:22:57;;;;;;;13.77;3.10;;;;;;;;;;2065796;28;20026;-67
2022/02/25 07:24:16;;;;;;;9.85;3.58;;;;;;;;;;2065496;28;20023;-68
2022/02/25 07:25:35;;;;;;;7.72;2.15;;;;;;;;;;2066313;28;20035;-68
2022/02/25 07:26:54;;;;;;;16.20;3.00;;;;;;;;;;2067665;28;20034;-66
2022/02/25 07:28:13;;;;;;;6.80;1.88;;;;;;;;;;2066382;28;20038;-66
2022/02/25 07:29:32;;;;;;;7.28;2.35;;;;;;;;;;2066083;28;20042;-66
2022/02/25 07:30:52;;;;;;;11.90;1.98;;;;;;;;;;2066100;28;20034;-66
2022/02/25 07:32:12;;;;;;;1.45;0.73;;;;;;;;;;2065583;28;20038;-67
2022/02/25 07:33:30;;;;;;;6.50;1.92;;;;;;;;;;2065136;28;20109;-66
2022/02/25 07:34:50;;;;;;;9.40;1.80;;;;;;;;;;2065785;28;20472;-66
2022/02/25 07:36:09;;;;;;;15.60;2.72;;;;;;;;;;2066835;28;20034;-66
2022/02/25 07:37:28;;;;;;;10.70;2.60;;;;;;;;;;2066480;28;20054;-66
2022/02/25 07:38:47;;;;;;;6.75;2.08;;;;;;;;;;2067293;28;20065;-67
2022/02/25 07:40:07;;;;;;;15.05;2.08;;;;;;;;;;2067305;28;20038;-67
2022/02/25 07:41:26;;;;;;;6.65;1.58;;;;;;;;;;2067415;28;20106;-67
2022/02/25 07:42:45;;;;;;;12.68;2.63;;;;;;;;;;2066383;28;20030;-66
2022/02/25 07:44:04;;;;;;;18.17;2.60;;;;;;;;;;2068591;28;20462;-67
2022/02/25 07:45:24;;;;;;;11.50;2.53;;;;;;;;;;2066534;28;20022;-67
2022/02/25 07:46:45;;;;;;;10.02;1.88;;;;;;;;;;2066612;28;20536;-67
2022/02/25 07:48:05;;;;;;;12.18;2.00;;;;;;;;;;2068635;28;20037;-67
2022/02/25 07:49:24;;;;;;;13.35;2.17;;;;;;;;;;2068150;28;20901;-66
2022/02/25 07:50:45;;;;;;;20.02;2.33;;;;;;;;;;2066849;28;20038;-67
2022/02/25 07:52:04;;;;;;;8.40;1.70;;;;;;;;;;2067532;28;20034;-66
2022/02/25 07:53:22;;;;;;;12.07;2.42;;;;;;;;;;2066669;28;20488;-66
2022/02/25 07:54:42;;;;;;;8.45;1.98;;;;;;;;;;2065396;28;20039;-67
2022/02/25 07:56:01;;;;;;;9.90;2.50;;;;;;;;;;2067671;28;20027;-67
2022/02/25 07:57:20;;;;;;;11.77;1.92;;;;;;;;;;2067434;28;20026;-69
2022/02/25 07:58:39;;;;;;;6.88;1.67;;;;;;;;;;2066934;28;20439;-67